createdAt,value
2023-02-15T00:01:20.553Z,2.50
2023-02-15T00:03:51.133Z,2.50
2023-02-15T00:06:19.988Z,2.50
2023-02-15T00:08:50.258Z,2.50
2023-02-15T00:11:40.270Z,2.50
2023-02-15T00:14:10.950Z,2.40
2023-02-15T00:16:41.529Z,2.40
2023-02-15T00:19:10.667Z,2.40
2023-02-15T00:21:39.729Z,2.40
2023-02-15T00:24:12.499Z,2.30
2023-02-15T00:26:42.187Z,2.30
2023-02-15T00:29:11.800Z,2.30
2023-02-15T00:31:41.321Z,2.30
2023-02-15T00:34:15.168Z,2.20
2023-02-15T00:36:43.633Z,2.20
2023-02-15T00:39:17.011Z,2.20
2023-02-15T00:41:45.945Z,2.20
2023-02-15T00:44:14.558Z,2.20
2023-02-15T00:46:44.571Z,2.10
2023-02-15T00:49:13.017Z,2.10
2023-02-15T00:51:41.443Z,2.10
2023-02-15T00:54:10.214Z,2.10
2023-02-15T00:56:38.585Z,2.10
2023-02-15T00:59:06.779Z,2.10
2023-02-15T01:01:34.955Z,2.00
2023-02-15T01:04:04.611Z,2.00
2023-02-15T01:06:32.753Z,2.00
2023-02-15T01:09:03.396Z,2.00
2023-02-15T01:11:31.601Z,2.00
2023-02-15T01:14:00.212Z,2.00
2023-02-15T01:16:30.482Z,1.90
2023-02-15T01:18:59.082Z,1.90
2023-02-15T01:21:28.829Z,1.90
2023-02-15T01:24:00.117Z,1.90
2023-02-15T01:26:28.511Z,1.90
2023-02-15T01:29:00.100Z,1.80
2023-02-15T01:31:28.308Z,1.80
2023-02-15T01:33:56.537Z,1.80
2023-02-15T01:36:24.608Z,1.80
2023-02-15T01:38:55.120Z,1.80
2023-02-15T01:41:24.602Z,1.70
2023-02-15T01:43:55.257Z,1.70
2023-02-15T01:46:29.544Z,1.70
2023-02-15T01:49:05.110Z,1.70
2023-02-15T01:51:38.906Z,1.70
2023-02-15T01:54:13.003Z,1.70
2023-02-15T01:56:43.069Z,1.70
2023-02-15T01:59:16.905Z,1.60
2023-02-15T02:01:47.846Z,1.60
2023-02-15T02:04:26.530Z,1.60
2023-02-15T02:06:59.834Z,1.60
2023-02-15T02:09:32.168Z,1.60
2023-02-15T02:12:03.549Z,1.60
2023-02-15T02:14:32.143Z,1.60
2023-02-15T02:17:07.480Z,1.60
2023-02-15T02:20:04.354Z,1.60
2023-02-15T02:23:11.147Z,1.60
2023-02-15T02:26:17.099Z,1.50
2023-02-15T02:29:29.799Z,1.50
2023-02-15T02:32:38.811Z,1.50
2023-02-15T02:35:16.378Z,1.50
2023-02-15T02:37:53.493Z,1.50
2023-02-15T02:40:30.605Z,1.50
2023-02-15T02:43:04.028Z,1.50
2023-02-15T02:45:41.962Z,1.50
2023-02-15T02:48:16.856Z,1.40
2023-02-15T02:50:46.297Z,1.40
2023-02-15T02:53:14.446Z,1.40
2023-02-15T02:55:48.344Z,1.40
2023-02-15T02:58:22.386Z,1.40
2023-02-15T03:00:55.433Z,1.40
2023-02-15T03:03:28.893Z,1.40
2023-02-15T03:06:02.912Z,1.40
2023-02-15T03:08:39.966Z,1.30
2023-02-15T03:11:11.080Z,1.30
2023-02-15T03:13:39.767Z,1.30
2023-02-15T03:16:30.616Z,1.30
2023-02-15T03:19:03.600Z,1.30
2023-02-15T03:21:38.176Z,1.30
2023-02-15T03:24:15.405Z,1.30
2023-02-15T03:26:47.542Z,1.30
2023-02-15T03:29:17.360Z,1.20
2023-02-15T03:31:51.727Z,1.20
2023-02-15T03:34:22.331Z,1.20
2023-02-15T03:36:58.105Z,1.20
2023-02-15T03:39:33.346Z,1.20
2023-02-15T03:42:09.739Z,1.20
2023-02-15T03:44:51.093Z,1.20
2023-02-15T03:47:26.132Z,1.10
2023-02-15T03:49:58.620Z,1.10
2023-02-15T03:52:31.669Z,1.10
2023-02-15T03:55:00.114Z,1.10
2023-02-15T03:57:47.928Z,1.10
2023-02-15T04:00:37.952Z,1.10
2023-02-15T04:03:14.592Z,1.10
2023-02-15T04:05:43.889Z,1.00
2023-02-15T04:08:14.509Z,1.00
2023-02-15T04:10:54.387Z,1.10
2023-02-15T04:13:23.389Z,1.00
2023-02-15T04:16:04.883Z,1.00
2023-02-15T04:18:55.924Z,1.00
2023-02-15T04:21:42.675Z,1.00
2023-02-15T04:24:32.515Z,1.00
2023-02-15T04:27:01.604Z,1.00
2023-02-15T04:29:30.298Z,1.00
2023-02-15T04:32:02.008Z,1.00
2023-02-15T04:34:32.647Z,0.90
2023-02-15T04:37:00.768Z,0.90
2023-02-15T04:39:30.211Z,0.90
2023-02-15T04:42:00.619Z,0.90
2023-02-15T04:44:28.699Z,0.90
2023-02-15T04:46:56.842Z,0.90
2023-02-15T04:49:24.940Z,0.90
2023-02-15T04:51:55.064Z,0.90
2023-02-15T04:54:25.656Z,0.80
2023-02-15T04:56:55.130Z,0.80
2023-02-15T04:59:25.341Z,0.80
2023-02-15T05:01:53.413Z,0.80
2023-02-15T05:04:21.570Z,0.80
2023-02-15T05:06:52.416Z,0.80
2023-02-15T05:09:20.546Z,0.80
2023-02-15T05:11:48.677Z,0.80
2023-02-15T05:14:18.178Z,0.80
2023-02-15T05:16:46.352Z,0.70
2023-02-15T05:19:16.838Z,0.70
2023-02-15T05:21:44.992Z,0.70
2023-02-15T05:24:30.801Z,0.70
2023-02-15T05:27:16.169Z,0.70
2023-02-15T05:29:45.685Z,0.70
2023-02-15T05:32:15.455Z,0.70
2023-02-15T05:34:46.018Z,0.60
2023-02-15T05:37:14.216Z,0.60
2023-02-15T05:39:44.625Z,0.60
2023-02-15T05:42:15.021Z,0.60
2023-02-15T05:44:46.692Z,0.60
2023-02-15T05:47:14.845Z,0.60
2023-02-15T05:49:42.986Z,0.60
2023-02-15T05:52:13.494Z,0.60
2023-02-15T05:54:43.927Z,0.60
2023-02-15T05:57:12.027Z,0.60
2023-02-15T05:59:40.230Z,0.50
2023-02-15T06:02:09.768Z,0.50
2023-02-15T06:04:37.900Z,0.50
2023-02-15T06:07:06.014Z,0.50
2023-02-15T06:09:36.244Z,0.50
2023-02-15T06:12:04.480Z,0.50
2023-02-15T06:14:32.685Z,0.50
2023-02-15T06:17:00.849Z,0.50
2023-02-15T06:19:30.333Z,0.50
2023-02-15T06:21:58.449Z,0.50
2023-02-15T06:24:26.708Z,0.50
2023-02-15T06:26:57.335Z,0.50
2023-02-15T06:29:25.532Z,0.40
2023-02-15T06:31:54.765Z,0.50
2023-02-15T06:34:23.814Z,0.50
2023-02-15T06:36:53.753Z,0.50
2023-02-15T06:39:24.428Z,0.40
2023-02-15T06:41:55.517Z,0.40
2023-02-15T06:44:26.703Z,0.40
2023-02-15T06:46:56.850Z,0.40
2023-02-15T06:49:24.899Z,0.40
2023-02-15T06:51:54.504Z,0.40
2023-02-15T06:54:22.680Z,0.40
2023-02-15T06:56:50.777Z,0.40
2023-02-15T06:59:21.221Z,0.30
2023-02-15T07:01:50.035Z,0.30
2023-02-15T07:04:18.312Z,0.40
2023-02-15T07:06:46.826Z,0.30
2023-02-15T07:09:19.030Z,0.40
2023-02-15T07:12:07.154Z,0.30
2023-02-15T07:14:37.594Z,0.30
2023-02-15T07:17:11.689Z,0.30
2023-02-15T07:19:42.953Z,0.30
2023-02-15T07:22:13.588Z,0.40
2023-02-15T07:24:43.112Z,0.40
2023-02-15T07:27:13.505Z,0.40
2023-02-15T07:29:41.783Z,0.40
2023-02-15T07:32:09.897Z,0.40
2023-02-15T07:34:40.256Z,0.40
2023-02-15T07:37:08.441Z,0.40
2023-02-15T07:39:38.824Z,0.40
2023-02-15T07:42:08.315Z,0.50
2023-02-15T07:44:38.700Z,0.50
2023-02-15T07:47:07.038Z,0.50
2023-02-15T07:49:35.191Z,0.50
2023-02-15T07:52:10.449Z,0.50
2023-02-15T07:54:41.227Z,0.60
2023-02-15T07:57:13.223Z,0.60
2023-02-15T07:59:41.687Z,0.70
2023-02-15T08:02:13.299Z,0.70
2023-02-15T08:04:41.532Z,0.80
2023-02-15T08:07:11.698Z,0.80
2023-02-15T08:09:40.283Z,0.80
2023-02-15T08:12:08.648Z,0.90
2023-02-15T08:14:38.263Z,0.90
2023-02-15T08:17:06.401Z,1.00
2023-02-15T08:19:36.683Z,1.10
2023-02-15T08:22:08.984Z,1.10
2023-02-15T08:24:39.893Z,1.20
2023-02-15T08:27:10.041Z,1.20
2023-02-15T08:29:40.413Z,1.30
2023-02-15T08:32:11.038Z,1.30
2023-02-15T08:34:41.694Z,1.40
2023-02-15T08:37:10.396Z,1.40
2023-02-15T08:39:40.797Z,1.50
2023-02-15T08:42:10.968Z,1.50
2023-02-15T08:44:40.480Z,1.60
2023-02-15T08:47:08.584Z,1.70
2023-02-15T08:49:36.700Z,1.70
2023-02-15T08:52:04.933Z,1.80
2023-02-15T08:54:33.078Z,1.90
2023-02-15T08:57:01.543Z,2.00
2023-02-15T08:59:29.614Z,2.00
2023-02-15T09:01:59.331Z,2.10
2023-02-15T09:04:27.468Z,2.20
2023-02-15T09:06:58.260Z,2.20
2023-02-15T09:09:28.684Z,2.30
2023-02-15T09:11:59.718Z,2.40
2023-02-15T09:14:28.803Z,2.50
2023-02-15T09:17:00.524Z,2.50
2023-02-15T09:19:28.643Z,2.70
2023-02-15T09:21:59.533Z,2.70
2023-02-15T09:24:27.779Z,2.80
2023-02-15T09:26:55.864Z,2.90
2023-02-15T09:29:24.018Z,3.00
2023-02-15T09:31:54.588Z,3.10
2023-02-15T09:34:24.714Z,3.20
2023-02-15T09:36:55.175Z,3.20
2023-02-15T09:39:25.596Z,3.30
2023-02-15T09:42:22.295Z,3.40
2023-02-15T09:45:18.765Z,3.50
2023-02-15T09:48:10.565Z,3.60
2023-02-15T09:50:49.944Z,3.80
2023-02-15T09:53:36.389Z,3.80
2023-02-15T09:56:11.771Z,4.00
2023-02-15T09:58:52.082Z,4.10
2023-02-15T10:01:30.579Z,4.20
2023-02-15T10:04:19.880Z,4.30
2023-02-15T10:07:03.422Z,4.40
2023-02-15T10:09:42.642Z,4.60
2023-02-15T10:12:30.032Z,4.70
2023-02-15T10:15:20.605Z,4.80
2023-02-15T10:18:08.931Z,5.00
2023-02-15T10:20:47.638Z,5.10
2023-02-15T10:23:43.701Z,5.20
2023-02-15T10:26:18.628Z,5.40
2023-02-15T10:28:50.696Z,5.50
2023-02-15T10:31:27.349Z,5.60
2023-02-15T10:34:18.290Z,5.70
2023-02-15T10:37:06.280Z,5.80
2023-02-15T10:39:46.053Z,5.90
2023-02-15T10:42:23.332Z,6.10
2023-02-15T10:45:08.642Z,6.10
2023-02-15T10:48:01.513Z,6.30
2023-02-15T10:50:49.587Z,6.40
2023-02-15T10:53:38.610Z,6.50
2023-02-15T10:56:20.701Z,6.60
2023-02-15T10:59:05.267Z,6.80
2023-02-15T11:01:42.761Z,6.90
2023-02-15T11:04:45.965Z,7.00
2023-02-15T11:07:18.856Z,7.10
2023-02-15T11:09:51.329Z,7.20
2023-02-15T11:12:25.279Z,7.20
2023-02-15T11:15:00.369Z,7.30
2023-02-15T11:17:32.934Z,7.40
2023-02-15T11:20:10.050Z,7.50
2023-02-15T11:22:38.336Z,7.60
2023-02-15T11:25:20.339Z,7.70
2023-02-15T11:27:53.968Z,7.70
2023-02-15T11:30:24.942Z,7.80
2023-02-15T11:32:56.572Z,7.80
2023-02-15T11:35:29.951Z,7.90
2023-02-15T11:38:05.771Z,7.90
2023-02-15T11:40:42.813Z,8.00
2023-02-15T11:43:20.431Z,8.00
2023-02-15T11:45:48.738Z,8.10
2023-02-15T11:48:18.784Z,8.10
2023-02-15T11:50:49.269Z,8.20
2023-02-15T11:53:22.134Z,8.20
2023-02-15T11:55:52.908Z,8.30
2023-02-15T11:58:32.623Z,8.40
2023-02-15T12:01:11.083Z,8.40
2023-02-15T12:03:46.826Z,8.60
2023-02-15T12:06:25.644Z,8.70
2023-02-15T12:09:07.323Z,8.80
2023-02-15T12:11:38.623Z,8.90
2023-02-15T12:14:12.683Z,9.00
2023-02-15T12:16:47.192Z,9.10
2023-02-15T12:19:32.066Z,9.20
2023-02-15T12:22:03.009Z,9.30
2023-02-15T12:24:36.634Z,9.40
2023-02-15T12:27:07.269Z,9.50
2023-02-15T12:29:44.049Z,9.60
2023-02-15T12:32:19.176Z,9.70
2023-02-15T12:34:48.514Z,9.70
2023-02-15T12:37:23.171Z,9.80
2023-02-15T12:39:56.652Z,9.90
2023-02-15T12:42:25.438Z,9.90
2023-02-15T12:45:00.899Z,10.10
2023-02-15T12:47:30.330Z,10.20
2023-02-15T12:50:17.884Z,10.30
2023-02-15T12:52:49.920Z,10.40
2023-02-15T12:55:24.681Z,10.50
2023-02-15T12:58:10.915Z,10.60
2023-02-15T13:00:40.491Z,10.70
2023-02-15T13:03:19.496Z,10.80
2023-02-15T13:05:50.004Z,10.90
2023-02-15T13:08:21.456Z,11.10
2023-02-15T13:10:56.629Z,11.10
2023-02-15T13:13:27.561Z,11.20
2023-02-15T13:16:00.809Z,11.20
2023-02-15T13:18:35.657Z,11.30
2023-02-15T13:21:13.394Z,11.40
2023-02-15T13:23:46.518Z,11.50
2023-02-15T13:26:21.340Z,11.60
2023-02-15T13:28:52.825Z,11.60
2023-02-15T13:31:34.134Z,11.60
2023-02-15T13:34:05.653Z,11.70
2023-02-15T13:36:44.313Z,11.70
2023-02-15T13:39:25.129Z,11.80
2023-02-15T13:42:00.372Z,11.90
2023-02-15T13:44:49.452Z,12.00
2023-02-15T13:47:27.787Z,12.00
2023-02-15T13:50:15.523Z,12.10
2023-02-15T13:52:53.256Z,12.10
2023-02-15T13:55:40.052Z,12.20
2023-02-15T13:58:25.439Z,12.30
2023-02-15T14:01:04.770Z,12.40
2023-02-15T14:04:03.298Z,12.40
2023-02-15T14:07:03.291Z,12.50
2023-02-15T14:09:42.642Z,12.50
2023-02-15T14:12:30.952Z,12.50
2023-02-15T14:15:16.078Z,12.60
2023-02-15T14:17:57.647Z,12.60
2023-02-15T14:20:38.389Z,12.70
2023-02-15T14:23:14.805Z,12.70
2023-02-15T14:25:49.457Z,12.70
2023-02-15T14:28:22.916Z,12.70
2023-02-15T14:30:53.680Z,12.70
2023-02-15T14:33:36.017Z,12.70
2023-02-15T14:36:09.260Z,12.80
2023-02-15T14:38:57.706Z,12.80
2023-02-15T14:41:37.113Z,12.70
2023-02-15T14:44:14.508Z,12.70
2023-02-15T14:46:50.514Z,12.60
2023-02-15T14:49:23.401Z,12.60
2023-02-15T14:52:01.484Z,12.60
2023-02-15T14:54:58.175Z,12.60
2023-02-15T14:57:28.735Z,12.60
2023-02-15T14:59:59.352Z,12.50
2023-02-15T15:02:31.620Z,12.50
2023-02-15T15:05:08.232Z,12.40
2023-02-15T15:07:46.515Z,12.40
2023-02-15T15:10:42.228Z,12.40
2023-02-15T15:13:55.453Z,12.30
2023-02-15T15:16:33.039Z,12.20
2023-02-15T15:19:02.000Z,12.10
2023-02-15T15:21:56.028Z,12.10
2023-02-15T15:24:54.436Z,12.00
2023-02-15T15:27:47.134Z,12.00
2023-02-15T15:31:01.639Z,11.90
2023-02-15T15:34:08.902Z,11.80
2023-02-15T15:37:18.622Z,11.80
2023-02-15T15:40:23.368Z,11.70
2023-02-15T15:42:56.023Z,11.70
2023-02-15T15:45:38.701Z,11.60
2023-02-15T15:48:30.744Z,11.60
2023-02-15T15:51:05.746Z,11.50
2023-02-15T15:53:43.283Z,11.50
2023-02-15T15:56:16.318Z,11.40
2023-02-15T15:58:49.239Z,11.30
2023-02-15T16:01:17.614Z,11.30
2023-02-15T16:03:53.311Z,11.20
2023-02-15T16:06:36.816Z,11.20
2023-02-15T16:09:17.657Z,11.10
2023-02-15T16:11:49.135Z,11.10
2023-02-15T16:14:23.291Z,11.00
2023-02-15T16:16:55.846Z,10.90
2023-02-15T16:19:28.555Z,10.90
2023-02-15T16:22:02.254Z,10.80
2023-02-15T16:24:58.973Z,10.80
2023-02-15T16:27:37.924Z,10.70
2023-02-15T16:30:28.486Z,10.70
2023-02-15T16:33:07.502Z,10.60
2023-02-15T16:35:40.021Z,10.50
2023-02-15T16:38:11.734Z,10.50
2023-02-15T16:40:53.471Z,10.40
2023-02-15T16:43:27.976Z,10.30
2023-02-15T16:46:06.364Z,10.20
2023-02-15T16:48:37.302Z,10.20
2023-02-15T16:51:06.074Z,10.10
2023-02-15T16:53:34.333Z,10.00
2023-02-15T16:56:07.002Z,10.00
2023-02-15T16:58:41.963Z,9.90
2023-02-15T17:01:14.912Z,9.80
2023-02-15T17:03:44.118Z,9.70
2023-02-15T17:06:23.724Z,9.60
2023-02-15T17:09:06.862Z,9.60
2023-02-15T17:11:44.576Z,9.50
2023-02-15T17:14:23.710Z,9.40
2023-02-15T17:16:58.565Z,9.30
2023-02-15T17:19:35.518Z,9.20
2023-02-15T17:22:09.699Z,9.10
2023-02-15T17:24:41.205Z,9.10
2023-02-15T17:27:17.985Z,9.00
2023-02-15T17:29:54.653Z,8.90
2023-02-15T17:32:31.954Z,8.80
2023-02-15T17:35:18.816Z,8.70
2023-02-15T17:37:52.895Z,8.70
2023-02-15T17:40:29.576Z,8.60
2023-02-15T17:43:04.730Z,8.50
2023-02-15T17:45:49.289Z,8.50
2023-02-15T17:48:23.203Z,8.40
2023-02-15T17:51:02.519Z,8.30
2023-02-15T17:53:36.002Z,8.30
2023-02-15T17:56:11.205Z,8.20
2023-02-15T17:58:42.164Z,8.10
2023-02-15T18:01:40.550Z,8.10
2023-02-15T18:04:30.226Z,8.00
2023-02-15T18:07:18.600Z,8.00
2023-02-15T18:10:10.862Z,7.90
2023-02-15T18:12:46.824Z,7.90
2023-02-15T18:15:16.244Z,7.80
2023-02-15T18:17:48.700Z,7.80
2023-02-15T18:20:24.613Z,7.80
2023-02-15T18:22:57.069Z,7.70
2023-02-15T18:25:29.997Z,7.70
2023-02-15T18:27:59.445Z,7.70
2023-02-15T18:30:32.143Z,7.70
2023-02-15T18:33:20.595Z,7.70
2023-02-15T18:35:52.483Z,7.70
2023-02-15T18:38:48.803Z,7.70
2023-02-15T18:41:22.496Z,7.70
2023-02-15T18:43:54.264Z,7.70
2023-02-15T18:46:24.046Z,7.70
2023-02-15T18:48:59.746Z,7.60
2023-02-15T18:51:41.618Z,7.60
2023-02-15T18:54:22.617Z,7.60
2023-02-15T18:56:58.583Z,7.60
2023-02-15T18:59:30.392Z,7.60
2023-02-15T19:02:01.357Z,7.60
2023-02-15T19:04:32.312Z,7.60
2023-02-15T19:07:00.475Z,7.60
2023-02-15T19:09:29.496Z,7.60
2023-02-15T19:11:58.047Z,7.70
2023-02-15T19:14:28.777Z,7.70
2023-02-15T19:17:01.477Z,7.70
2023-02-15T19:19:31.125Z,7.70
2023-02-15T19:22:00.013Z,7.70
2023-02-15T19:24:37.980Z,7.70
2023-02-15T19:27:07.807Z,7.70
2023-02-15T19:29:35.978Z,7.70
2023-02-15T19:32:06.869Z,7.60
2023-02-15T19:34:36.387Z,7.60
2023-02-15T19:37:06.749Z,7.60
2023-02-15T19:39:39.539Z,7.60
2023-02-15T19:42:14.841Z,7.60
2023-02-15T19:44:43.748Z,7.60
2023-02-15T19:47:14.398Z,7.50
2023-02-15T19:49:43.929Z,7.50
2023-02-15T19:52:18.262Z,7.50
2023-02-15T19:54:47.093Z,7.40
2023-02-15T19:57:15.258Z,7.40
2023-02-15T19:59:45.859Z,7.30
2023-02-15T20:02:15.552Z,7.30
2023-02-15T20:04:47.464Z,7.30
2023-02-15T20:07:22.249Z,7.20
2023-02-15T20:09:50.378Z,7.20
2023-02-15T20:12:25.103Z,7.10
2023-02-15T20:14:54.066Z,7.00
2023-02-15T20:17:24.460Z,7.00
2023-02-15T20:19:56.404Z,6.90
2023-02-15T20:22:27.202Z,6.90
2023-02-15T20:24:57.102Z,6.80
2023-02-15T20:27:25.237Z,6.70
2023-02-15T20:29:56.862Z,6.60
2023-02-15T20:32:25.213Z,6.50
2023-02-15T20:34:53.447Z,6.50
2023-02-15T20:37:29.461Z,6.50
2023-02-15T20:39:57.768Z,6.40
2023-02-15T20:42:25.865Z,6.40
2023-02-15T20:44:56.066Z,6.30
2023-02-15T20:47:27.323Z,6.30
2023-02-15T20:49:59.185Z,6.30
2023-02-15T20:52:29.195Z,6.20
2023-02-15T20:54:57.428Z,6.20
2023-02-15T20:57:25.509Z,6.20
2023-02-15T20:59:53.607Z,6.20
2023-02-15T21:02:23.943Z,6.20
2023-02-15T21:04:52.533Z,6.20
2023-02-15T21:07:22.742Z,6.20
2023-02-15T21:09:54.343Z,6.20
2023-02-15T21:12:23.595Z,6.20
2023-02-15T21:14:53.992Z,6.20
2023-02-15T21:17:22.129Z,6.20
2023-02-15T21:19:50.245Z,6.20
2023-02-15T21:22:21.438Z,6.20
2023-02-15T21:24:54.803Z,6.10
2023-02-15T21:27:24.371Z,6.10
2023-02-15T21:29:52.582Z,6.10
2023-02-15T21:32:23.045Z,6.10
2023-02-15T21:34:51.259Z,6.00
2023-02-15T21:37:29.346Z,6.00
2023-02-15T21:39:57.702Z,6.00
2023-02-15T21:42:47.189Z,5.90
2023-02-15T21:45:34.140Z,5.90
2023-02-15T21:48:05.176Z,5.90
2023-02-15T21:50:50.893Z,5.90
2023-02-15T21:53:23.696Z,5.90
2023-02-15T21:55:56.800Z,5.90
2023-02-15T21:58:28.967Z,5.80
2023-02-15T22:00:58.719Z,5.80
2023-02-15T22:03:31.104Z,5.80
2023-02-15T22:05:59.220Z,5.80
2023-02-15T22:08:27.678Z,5.70
2023-02-15T22:10:58.606Z,5.70
2023-02-15T22:13:32.881Z,5.70
2023-02-15T22:16:01.289Z,5.60
2023-02-15T22:18:34.271Z,5.60
2023-02-15T22:21:04.314Z,5.50
2023-02-15T22:23:35.176Z,5.50
2023-02-15T22:26:05.328Z,5.50
2023-02-15T22:28:36.687Z,5.50
2023-02-15T22:31:05.896Z,5.50
2023-02-15T22:33:36.596Z,5.40
2023-02-15T22:36:05.098Z,5.40
2023-02-15T22:38:35.719Z,5.40
2023-02-15T22:41:06.227Z,5.50
2023-02-15T22:43:40.778Z,5.50
2023-02-15T22:46:12.912Z,5.60
2023-02-15T22:48:41.321Z,5.50
2023-02-15T22:51:14.002Z,5.60
2023-02-15T22:53:42.125Z,5.60
2023-02-15T22:56:16.615Z,5.60
2023-02-15T22:58:50.355Z,5.60
2023-02-15T23:01:27.456Z,5.70
2023-02-15T23:03:59.943Z,5.70
2023-02-15T23:06:30.150Z,5.70
2023-02-15T23:09:00.682Z,5.70
2023-02-15T23:11:31.833Z,5.70
2023-02-15T23:14:03.734Z,5.70
2023-02-15T23:16:34.540Z,5.70
2023-02-15T23:19:02.693Z,5.80
2023-02-15T23:21:34.239Z,5.80
2023-02-15T23:24:16.622Z,5.80
2023-02-15T23:26:44.743Z,5.80
2023-02-15T23:29:19.070Z,5.90
2023-02-15T23:31:49.511Z,5.90
2023-02-15T23:34:21.249Z,5.90
2023-02-15T23:36:49.776Z,5.90
2023-02-15T23:39:36.793Z,5.90
2023-02-15T23:42:09.985Z,5.90
2023-02-15T23:44:43.792Z,5.90
2023-02-15T23:47:21.120Z,6.00
2023-02-15T23:49:51.496Z,5.90
2023-02-15T23:52:19.594Z,6.00
2023-02-15T23:54:47.660Z,6.00
2023-02-15T23:57:15.763Z,5.90
2023-02-15T23:59:46.170Z,5.90
